sensor_id;sensor_type;location;lat;lon;timestamp;pressure;altitude;pressure_sealevel;temperature;humidity
48517;BME280;34310;51.904;4.256;2023-04-28T00:01:52;101431.00;;;16.17;59.31
48517;BME280;34310;51.904;4.256;2023-04-28T00:04:20;101424.06;;;16.17;59.31
48517;BME280;34310;51.904;4.256;2023-04-28T00:06:48;101424.97;;;16.18;59.37
48517;BME280;34310;51.904;4.256;2023-04-28T00:09:15;101408.34;;;16.16;59.34
48517;BME280;34310;51.904;4.256;2023-04-28T00:11:46;101405.75;;;16.16;59.28
48517;BME280;34310;51.904;4.256;2023-04-28T00:14:13;101397.94;;;16.16;59.40
48517;BME280;34310;51.904;4.256;2023-04-28T00:16:41;101393.53;;;16.15;59.34
48517;BME280;34310;51.904;4.256;2023-04-28T00:19:09;101401.34;;;16.15;59.38
48517;BME280;34310;51.904;4.256;2023-04-28T00:21:36;101391.75;;;16.14;59.40
48517;BME280;34310;51.904;4.256;2023-04-28T00:24:04;101378.72;;;16.14;59.43
48517;BME280;34310;51.904;4.256;2023-04-28T00:26:31;101383.03;;;16.13;59.34
48517;BME280;34310;51.904;4.256;2023-04-28T00:28:58;101376.03;;;16.12;59.41
48517;BME280;34310;51.904;4.256;2023-04-28T00:31:26;101373.50;;;16.14;59.26
48517;BME280;34310;51.904;4.256;2023-04-28T00:33:53;101369.13;;;16.13;59.28
48517;BME280;34310;51.904;4.256;2023-04-28T00:36:20;101359.50;;;16.11;59.35
48517;BME280;34310;51.904;4.256;2023-04-28T00:38:48;101352.50;;;16.10;59.42
48517;BME280;34310;51.904;4.256;2023-04-28T00:41:15;101351.59;;;16.10;59.28
48517;BME280;34310;51.904;4.256;2023-04-28T00:43:46;101359.41;;;16.10;59.49
48517;BME280;34310;51.904;4.256;2023-04-28T00:46:20;101351.59;;;16.10;59.43
48517;BME280;34310;51.904;4.256;2023-04-28T00:48:49;101346.31;;;16.08;59.44
48517;BME280;34310;51.904;4.256;2023-04-28T00:51:16;101340.28;;;16.09;59.43
48517;BME280;34310;51.904;4.256;2023-04-28T00:53:44;101328.06;;;16.08;59.29
48517;BME280;34310;51.904;4.256;2023-04-28T00:56:12;101328.88;;;16.07;59.48
48517;BME280;34310;51.904;4.256;2023-04-28T00:58:39;101324.56;;;16.08;59.42
48517;BME280;34310;51.904;4.256;2023-04-28T01:01:09;101317.56;;;16.07;59.44
48517;BME280;34310;51.904;4.256;2023-04-28T01:03:39;101305.34;;;16.06;59.46
48517;BME280;34310;51.904;4.256;2023-04-28T01:06:08;101301.03;;;16.06;59.32
48517;BME280;34310;51.904;4.256;2023-04-28T01:08:37;101298.44;;;16.06;59.26
48517;BME280;34310;51.904;4.256;2023-04-28T01:11:05;101299.25;;;16.05;59.27
48517;BME280;34310;51.904;4.256;2023-04-28T01:13:33;101299.25;;;16.05;59.41
48517;BME280;34310;51.904;4.256;2023-04-28T01:16:00;101291.44;;;16.05;59.37
48517;BME280;34310;51.904;4.256;2023-04-28T01:18:27;101287.03;;;16.04;59.35
48517;BME280;34310;51.904;4.256;2023-04-28T01:20:56;101289.66;;;16.04;59.50
48517;BME280;34310;51.904;4.256;2023-04-28T01:23:23;101287.84;;;16.03;59.35
48517;BME280;34310;51.904;4.256;2023-04-28T01:25:51;101290.47;;;16.03;59.28
48517;BME280;34310;51.904;4.256;2023-04-28T01:28:18;101293.88;;;16.02;59.40
48517;BME280;34310;51.904;4.256;2023-04-28T01:30:45;101299.09;;;16.02;59.37
48517;BME280;34310;51.904;4.256;2023-04-28T01:33:13;101305.19;;;16.03;59.46
48517;BME280;34310;51.904;4.256;2023-04-28T01:35:40;101301.69;;;16.02;59.48
48517;BME280;34310;51.904;4.256;2023-04-28T01:38:07;101285.16;;;16.02;59.51
48517;BME280;34310;51.904;4.256;2023-04-28T01:40:35;101283.38;;;16.01;59.54
48517;BME280;34310;51.904;4.256;2023-04-28T01:43:03;101264.25;;;16.00;59.32
48517;BME280;34310;51.904;4.256;2023-04-28T01:45:30;101271.16;;;16.00;59.38
48517;BME280;34310;51.904;4.256;2023-04-28T01:47:57;101278.09;;;15.99;59.31
48517;BME280;34310;51.904;4.256;2023-04-28T01:50:25;101276.38;;;16.00;59.30
48517;BME280;34310;51.904;4.256;2023-04-28T01:52:52;101262.53;;;16.01;59.48
48517;BME280;34310;51.904;4.256;2023-04-28T01:55:19;101251.16;;;15.99;59.50
48517;BME280;34310;51.904;4.256;2023-04-28T01:57:47;101253.75;;;15.99;59.41
48517;BME280;34310;51.904;4.256;2023-04-28T02:00:15;101253.66;;;15.97;59.51
48517;BME280;34310;51.904;4.256;2023-04-28T02:02:42;101250.25;;;15.98;59.49
48517;BME280;34310;51.904;4.256;2023-04-28T02:05:09;101244.97;;;15.97;59.55
48517;BME280;34310;51.904;4.256;2023-04-28T02:07:38;101242.34;;;15.97;59.42
48517;BME280;34310;51.904;4.256;2023-04-28T02:10:06;101240.66;;;15.97;59.51
48517;BME280;34310;51.904;4.256;2023-04-28T02:12:33;101231.03;;;15.96;59.39
48517;BME280;34310;51.904;4.256;2023-04-28T02:15:01;101218.84;;;15.95;59.51
48517;BME280;34310;51.904;4.256;2023-04-28T02:17:31;101224.03;;;15.95;59.48
48517;BME280;34310;51.904;4.256;2023-04-28T02:19:58;101217.94;;;15.95;59.50
48517;BME280;34310;51.904;4.256;2023-04-28T02:22:25;101217.94;;;15.95;59.49
48517;BME280;34310;51.904;4.256;2023-04-28T02:24:53;101212.72;;;15.95;59.48
48517;BME280;34310;51.904;4.256;2023-04-28T02:27:20;101206.63;;;15.94;59.51
48517;BME280;34310;51.904;4.256;2023-04-28T02:29:48;101210.94;;;15.94;59.37
48517;BME280;34310;51.904;4.256;2023-04-28T02:32:15;101214.34;;;15.93;59.41
48517;BME280;34310;51.904;4.256;2023-04-28T02:34:43;101213.47;;;15.92;59.46
48517;BME280;34310;51.904;4.256;2023-04-28T02:37:10;101213.47;;;15.92;59.43
48517;BME280;34310;51.904;4.256;2023-04-28T02:39:37;101219.56;;;15.93;59.44
48517;BME280;34310;51.904;4.256;2023-04-28T02:42:06;101229.91;;;15.91;59.60
48517;BME280;34310;51.904;4.256;2023-04-28T02:44:33;101229.91;;;15.91;59.63
48517;BME280;34310;51.904;4.256;2023-04-28T02:47:00;101223.78;;;15.91;59.60
48517;BME280;34310;51.904;4.256;2023-04-28T02:49:28;101218.59;;;15.91;59.41
48517;BME280;34310;51.904;4.256;2023-04-28T02:51:55;101210.66;;;15.89;59.63
48517;BME280;34310;51.904;4.256;2023-04-28T02:54:22;101207.16;;;15.89;59.46
48517;BME280;34310;51.904;4.256;2023-04-28T02:56:57;101202.97;;;15.91;59.49
48517;BME280;34310;51.904;4.256;2023-04-28T02:59:24;101198.44;;;15.88;59.52
48517;BME280;34310;51.904;4.256;2023-04-28T03:01:53;101190.63;;;15.88;59.60
48517;BME280;34310;51.904;4.256;2023-04-28T03:04:20;101192.34;;;15.88;59.52
48517;BME280;34310;51.904;4.256;2023-04-28T03:06:48;101192.34;;;15.88;59.56
48517;BME280;34310;51.904;4.256;2023-04-28T03:09:15;101199.25;;;15.87;59.61
48517;BME280;34310;51.904;4.256;2023-04-28T03:11:42;101201.88;;;15.87;59.46
48517;BME280;34310;51.904;4.256;2023-04-28T03:14:10;101187.06;;;15.86;59.49
48517;BME280;34310;51.904;4.256;2023-04-28T03:16:37;101185.34;;;15.87;59.48
48517;BME280;34310;51.904;4.256;2023-04-28T03:19:05;101181.84;;;15.86;59.53
48517;BME280;34310;51.904;4.256;2023-04-28T03:21:32;101176.63;;;15.86;59.44
48517;BME280;34310;51.904;4.256;2023-04-28T03:24:00;101169.66;;;15.85;59.50
48517;BME280;34310;51.904;4.256;2023-04-28T03:26:30;101168.81;;;15.86;59.67
48517;BME280;34310;51.904;4.256;2023-04-28T03:28:57;101167.03;;;15.85;59.52
48517;BME280;34310;51.904;4.256;2023-04-28T03:31:24;101164.44;;;15.85;59.73
48517;BME280;34310;51.904;4.256;2023-04-28T03:33:52;101166.16;;;15.85;59.55
48517;BME280;34310;51.904;4.256;2023-04-28T03:36:19;101162.66;;;15.84;59.57
48517;BME280;34310;51.904;4.256;2023-04-28T03:38:46;101154.84;;;15.84;59.74
48517;BME280;34310;51.904;4.256;2023-04-28T03:41:13;101149.63;;;15.84;59.57
48517;BME280;34310;51.904;4.256;2023-04-28T03:43:41;101153.94;;;15.84;59.52
48517;BME280;34310;51.904;4.256;2023-04-28T03:46:08;101154.75;;;15.83;59.50
48517;BME280;34310;51.904;4.256;2023-04-28T03:48:36;101147.84;;;15.83;59.70
48517;BME280;34310;51.904;4.256;2023-04-28T03:51:03;101133.94;;;15.83;59.60
48517;BME280;34310;51.904;4.256;2023-04-28T03:53:30;101117.41;;;15.82;59.60
48517;BME280;34310;51.904;4.256;2023-04-28T03:55:58;101116.50;;;15.82;59.63
48517;BME280;34310;51.904;4.256;2023-04-28T03:58:25;101120.00;;;15.82;59.67
48517;BME280;34310;51.904;4.256;2023-04-28T04:00:53;101115.63;;;15.81;59.64
48517;BME280;34310;51.904;4.256;2023-04-28T04:03:20;101100.81;;;15.80;59.70
48517;BME280;34310;51.904;4.256;2023-04-28T04:05:52;101101.63;;;15.79;59.59
48517;BME280;34310;51.904;4.256;2023-04-28T04:08:21;101096.50;;;15.80;59.66
48517;BME280;34310;51.904;4.256;2023-04-28T04:10:48;101101.63;;;15.79;59.60
48517;BME280;34310;51.904;4.256;2023-04-28T04:13:16;101110.31;;;15.79;59.81
48517;BME280;34310;51.904;4.256;2023-04-28T04:15:43;101112.94;;;15.79;59.63
48517;BME280;34310;51.904;4.256;2023-04-28T04:18:10;101114.63;;;15.79;59.65
48517;BME280;34310;51.904;4.256;2023-04-28T04:20:38;101105.03;;;15.78;59.73
48517;BME280;34310;51.904;4.256;2023-04-28T04:23:06;101113.75;;;15.78;59.71
48517;BME280;34310;51.904;4.256;2023-04-28T04:25:34;101105.94;;;15.78;59.61
48517;BME280;34310;51.904;4.256;2023-04-28T04:28:01;101098.94;;;15.77;59.72
48517;BME280;34310;51.904;4.256;2023-04-28T04:30:29;101113.66;;;15.77;59.74
48517;BME280;34310;51.904;4.256;2023-04-28T04:32:56;101114.47;;;15.76;59.69
48517;BME280;34310;51.904;4.256;2023-04-28T04:35:24;101119.69;;;15.76;59.72
48517;BME280;34310;51.904;4.256;2023-04-28T04:37:51;101105.78;;;15.75;59.64
48517;BME280;34310;51.904;4.256;2023-04-28T04:40:18;101109.28;;;15.76;59.84
48517;BME280;34310;51.904;4.256;2023-04-28T04:42:46;101100.56;;;15.75;59.87
48517;BME280;34310;51.904;4.256;2023-04-28T04:45:13;101105.78;;;15.75;59.88
48517;BME280;34310;51.904;4.256;2023-04-28T04:47:40;101108.38;;;15.75;59.88
48517;BME280;34310;51.904;4.256;2023-04-28T04:50:10;101102.28;;;15.75;59.75
48517;BME280;34310;51.904;4.256;2023-04-28T04:52:37;101107.47;;;15.75;59.86
48517;BME280;34310;51.904;4.256;2023-04-28T04:55:05;101108.28;;;15.74;59.86
48517;BME280;34310;51.904;4.256;2023-04-28T04:57:33;101118.72;;;15.74;59.75
48517;BME280;34310;51.904;4.256;2023-04-28T05:00:00;101125.69;;;15.75;59.89
48517;BME280;34310;51.904;4.256;2023-04-28T05:02:27;101121.31;;;15.74;59.80
48517;BME280;34310;51.904;4.256;2023-04-28T05:04:55;101126.53;;;15.74;59.80
48517;BME280;34310;51.904;4.256;2023-04-28T05:07:42;101120.41;;;15.73;59.81
48517;BME280;34310;51.904;4.256;2023-04-28T05:10:10;101132.53;;;15.73;59.80
48517;BME280;34310;51.904;4.256;2023-04-28T05:12:40;101132.53;;;15.73;59.83
48517;BME280;34310;51.904;4.256;2023-04-28T05:15:07;101125.53;;;15.72;59.75
48517;BME280;34310;51.904;4.256;2023-04-28T05:17:35;101107.31;;;15.72;59.81
48517;BME280;34310;51.904;4.256;2023-04-28T05:20:04;101103.00;;;15.72;59.79
48517;BME280;34310;51.904;4.256;2023-04-28T05:22:31;101103.81;;;15.71;59.97
48517;BME280;34310;51.904;4.256;2023-04-28T05:24:58;101091.69;;;15.72;59.83
48517;BME280;34310;51.904;4.256;2023-04-28T05:27:26;101093.41;;;15.71;59.90
48517;BME280;34310;51.904;4.256;2023-04-28T05:29:53;101097.72;;;15.71;59.84
48517;BME280;34310;51.904;4.256;2023-04-28T05:32:20;101101.22;;;15.71;59.83
48517;BME280;34310;51.904;4.256;2023-04-28T05:34:48;101089.84;;;15.69;59.77
48517;BME280;34310;51.904;4.256;2023-04-28T05:37:15;101093.31;;;15.70;59.88
48517;BME280;34310;51.904;4.256;2023-04-28T05:39:42;101092.44;;;15.69;59.93
48517;BME280;34310;51.904;4.256;2023-04-28T05:42:10;101095.03;;;15.69;59.73
48517;BME280;34310;51.904;4.256;2023-04-28T05:44:38;101096.75;;;15.69;59.79
48517;BME280;34310;51.904;4.256;2023-04-28T05:47:08;101083.72;;;15.69;59.86
48517;BME280;34310;51.904;4.256;2023-04-28T05:49:36;101094.97;;;15.68;59.90
48517;BME280;34310;51.904;4.256;2023-04-28T05:52:04;101096.75;;;15.69;59.91
48517;BME280;34310;51.904;4.256;2023-04-28T05:54:31;101096.66;;;15.67;59.86
48517;BME280;34310;51.904;4.256;2023-04-28T05:57:00;101101.88;;;15.67;60.04
48517;BME280;34310;51.904;4.256;2023-04-28T05:59:28;101099.25;;;15.67;59.85
48517;BME280;34310;51.904;4.256;2023-04-28T06:01:56;101095.78;;;15.67;60.03
48517;BME280;34310;51.904;4.256;2023-04-28T06:04:24;101093.16;;;15.67;60.13
48517;BME280;34310;51.904;4.256;2023-04-28T06:06:52;101087.97;;;15.67;59.87
48517;BME280;34310;51.904;4.256;2023-04-28T06:09:20;101091.38;;;15.66;59.99
48517;BME280;34310;51.904;4.256;2023-04-28T06:11:47;101090.47;;;15.65;59.97
48517;BME280;34310;51.904;4.256;2023-04-28T06:14:16;101091.38;;;15.66;59.89
48517;BME280;34310;51.904;4.256;2023-04-28T06:16:44;101083.56;;;15.66;60.05
48517;BME280;34310;51.904;4.256;2023-04-28T06:19:11;101081.78;;;15.65;59.90
48517;BME280;34310;51.904;4.256;2023-04-28T06:21:40;101091.28;;;15.64;59.88
48517;BME280;34310;51.904;4.256;2023-04-28T06:24:07;101077.38;;;15.64;60.02
48517;BME280;34310;51.904;4.256;2023-04-28T06:26:35;101077.38;;;15.64;60.12
48517;BME280;34310;51.904;4.256;2023-04-28T06:29:02;101073.06;;;15.64;60.04
48517;BME280;34310;51.904;4.256;2023-04-28T06:31:29;101084.31;;;15.63;59.91
48517;BME280;34310;51.904;4.256;2023-04-28T06:33:57;101082.59;;;15.64;59.93
48517;BME280;34310;51.904;4.256;2023-04-28T06:36:24;101086.09;;;15.64;60.08
48517;BME280;34310;51.904;4.256;2023-04-28T06:38:52;101079.09;;;15.63;60.12
48517;BME280;34310;51.904;4.256;2023-04-28T06:41:19;101077.38;;;15.64;60.04
48517;BME280;34310;51.904;4.256;2023-04-28T06:43:47;101079.09;;;15.63;59.94
48517;BME280;34310;51.904;4.256;2023-04-28T06:46:14;101085.13;;;15.62;60.05
48517;BME280;34310;51.904;4.256;2023-04-28T06:48:42;101082.50;;;15.62;59.99
48517;BME280;34310;51.904;4.256;2023-04-28T06:51:09;101079.00;;;15.62;60.15
48517;BME280;34310;51.904;4.256;2023-04-28T06:53:37;101068.59;;;15.62;60.08
48517;BME280;34310;51.904;4.256;2023-04-28T06:56:05;101068.59;;;15.62;60.15
48517;BME280;34310;51.904;4.256;2023-04-28T06:58:35;101074.69;;;15.62;60.11
48517;BME280;34310;51.904;4.256;2023-04-28T07:01:03;101077.19;;;15.61;59.93
48517;BME280;34310;51.904;4.256;2023-04-28T07:03:32;101069.50;;;15.62;60.04
48517;BME280;34310;51.904;4.256;2023-04-28T07:05:59;101071.97;;;15.61;60.09
48517;BME280;34310;51.904;4.256;2023-04-28T07:08:27;101059.91;;;15.61;60.01
48517;BME280;34310;51.904;4.256;2023-04-28T07:10:56;101066.00;;;15.62;60.18
48517;BME280;34310;51.904;4.256;2023-04-28T07:13:24;101069.38;;;15.61;60.12
48517;BME280;34310;51.904;4.256;2023-04-28T07:15:51;101059.91;;;15.61;60.05
48517;BME280;34310;51.904;4.256;2023-04-28T07:18:18;101066.00;;;15.62;60.21
48517;BME280;34310;51.904;4.256;2023-04-28T07:20:46;101061.56;;;15.61;60.06
48517;BME280;34310;51.904;4.256;2023-04-28T07:23:14;101061.56;;;15.61;60.17
48517;BME280;34310;51.904;4.256;2023-04-28T07:25:42;101068.50;;;15.60;60.12
48517;BME280;34310;51.904;4.256;2023-04-28T07:28:09;101056.38;;;15.61;60.05
48517;BME280;34310;51.904;4.256;2023-04-28T07:30:36;101065.88;;;15.60;60.27
48517;BME280;34310;51.904;4.256;2023-04-28T07:33:04;101063.28;;;15.60;60.14
48517;BME280;34310;51.904;4.256;2023-04-28T07:35:31;101076.28;;;15.60;60.13
48517;BME280;34310;51.904;4.256;2023-04-28T07:37:58;101067.59;;;15.60;60.25
48517;BME280;34310;51.904;4.256;2023-04-28T07:40:26;101067.59;;;15.60;60.22
48517;BME280;34310;51.904;4.256;2023-04-28T07:42:53;101064.19;;;15.61;60.18
48517;BME280;34310;51.904;4.256;2023-04-28T07:45:21;101065.00;;;15.60;60.14
48517;BME280;34310;51.904;4.256;2023-04-28T07:47:48;101067.59;;;15.60;60.26
48517;BME280;34310;51.904;4.256;2023-04-28T07:50:15;101073.69;;;15.60;60.15
48517;BME280;34310;51.904;4.256;2023-04-28T07:52:44;101070.19;;;15.60;60.19
48517;BME280;34310;51.904;4.256;2023-04-28T07:55:11;101075.50;;;15.61;60.17
48517;BME280;34310;51.904;4.256;2023-04-28T07:57:39;101070.19;;;15.60;60.15
48517;BME280;34310;51.904;4.256;2023-04-28T08:00:08;101068.50;;;15.60;60.18
48517;BME280;34310;51.904;4.256;2023-04-28T08:02:36;101073.69;;;15.60;60.23
48517;BME280;34310;51.904;4.256;2023-04-28T08:05:03;101069.38;;;15.61;60.24
48517;BME280;34310;51.904;4.256;2023-04-28T08:07:33;101069.38;;;15.61;60.18
48517;BME280;34310;51.904;4.256;2023-04-28T08:10:00;101071.09;;;15.60;60.24
48517;BME280;34310;51.904;4.256;2023-04-28T08:12:28;101081.50;;;15.60;60.27
48517;BME280;34310;51.904;4.256;2023-04-28T08:14:56;101078.00;;;15.60;60.31
48517;BME280;34310;51.904;4.256;2023-04-28T08:17:23;101088.41;;;15.60;60.29
48517;BME280;34310;51.904;4.256;2023-04-28T08:19:51;101079.78;;;15.61;60.26
48517;BME280;34310;51.904;4.256;2023-04-28T08:22:18;101078.91;;;15.60;60.47
48517;BME280;34310;51.904;4.256;2023-04-28T08:24:45;101077.19;;;15.61;60.40
48517;BME280;34310;51.904;4.256;2023-04-28T08:27:12;101069.38;;;15.61;60.45
48517;BME280;34310;51.904;4.256;2023-04-28T08:29:40;101065.09;;;15.61;60.56
48517;BME280;34310;51.904;4.256;2023-04-28T08:32:07;101066.00;;;15.62;60.55
48517;BME280;34310;51.904;4.256;2023-04-28T08:34:35;101066.91;;;15.62;60.44
48517;BME280;34310;51.904;4.256;2023-04-28T08:37:02;101062.50;;;15.61;60.53
48517;BME280;34310;51.904;4.256;2023-04-28T08:39:30;101060.78;;;15.62;60.38
48517;BME280;34310;51.904;4.256;2023-04-28T08:42:02;101058.19;;;15.62;60.56
48517;BME280;34310;51.904;4.256;2023-04-28T08:44:38;101061.69;;;15.62;60.53
48517;BME280;34310;51.904;4.256;2023-04-28T08:47:12;101056.56;;;15.64;60.47
48517;BME280;34310;51.904;4.256;2023-04-28T08:49:40;101053.88;;;15.62;60.49
48517;BME280;34310;51.904;4.256;2023-04-28T08:52:11;101060.97;;;15.65;60.55
48517;BME280;34310;51.904;4.256;2023-04-28T08:54:39;101062.66;;;15.64;60.48
48517;BME280;34310;51.904;4.256;2023-04-28T08:57:11;101054.84;;;15.64;60.58
48517;BME280;34310;51.904;4.256;2023-04-28T08:59:41;101059.16;;;15.64;60.61
48517;BME280;34310;51.904;4.256;2023-04-28T09:02:09;101055.75;;;15.65;60.60
48517;BME280;34310;51.904;4.256;2023-04-28T09:04:37;101058.34;;;15.65;60.53
48517;BME280;34310;51.904;4.256;2023-04-28T09:07:10;101058.34;;;15.65;60.50
48517;BME280;34310;51.904;4.256;2023-04-28T09:09:38;101067.13;;;15.67;60.59
48517;BME280;34310;51.904;4.256;2023-04-28T09:12:07;101059.31;;;15.67;60.53
48517;BME280;34310;51.904;4.256;2023-04-28T09:14:36;101054.94;;;15.66;60.75
48517;BME280;34310;51.904;4.256;2023-04-28T09:17:11;101053.22;;;15.66;60.54
48517;BME280;34310;51.904;4.256;2023-04-28T09:19:40;101058.44;;;15.66;60.60
48517;BME280;34310;51.904;4.256;2023-04-28T09:22:10;101064.53;;;15.67;60.63
48517;BME280;34310;51.904;4.256;2023-04-28T09:24:52;101062.81;;;15.67;60.64
48517;BME280;34310;51.904;4.256;2023-04-28T09:27:26;101060.22;;;15.67;60.75
48517;BME280;34310;51.904;4.256;2023-04-28T09:29:54;101065.44;;;15.67;60.75
48517;BME280;34310;51.904;4.256;2023-04-28T09:32:22;101061.13;;;15.68;60.80
48517;BME280;34310;51.904;4.256;2023-04-28T09:34:53;101060.31;;;15.69;60.74
48517;BME280;34310;51.904;4.256;2023-04-28T09:37:24;101067.22;;;15.68;60.86
48517;BME280;34310;51.904;4.256;2023-04-28T09:39:54;101063.81;;;15.69;60.87
48517;BME280;34310;51.904;4.256;2023-04-28T09:42:42;101067.22;;;15.68;60.87
48517;BME280;34310;51.904;4.256;2023-04-28T09:45:14;101070.72;;;15.69;60.84
48517;BME280;34310;51.904;4.256;2023-04-28T09:47:43;101075.09;;;15.70;60.77
48517;BME280;34310;51.904;4.256;2023-04-28T09:50:15;101073.31;;;15.69;60.87
48517;BME280;34310;51.904;4.256;2023-04-28T09:52:45;101076.00;;;15.70;60.90
48517;BME280;34310;51.904;4.256;2023-04-28T09:55:23;101079.50;;;15.71;60.91
48517;BME280;34310;51.904;4.256;2023-04-28T09:57:54;101077.72;;;15.70;60.93
48517;BME280;34310;51.904;4.256;2023-04-28T10:00:22;101082.09;;;15.71;60.73
48517;BME280;34310;51.904;4.256;2023-04-28T10:02:50;101079.50;;;15.71;60.84
48517;BME280;34310;51.904;4.256;2023-04-28T10:05:19;101088.19;;;15.71;60.81
48517;BME280;34310;51.904;4.256;2023-04-28T10:07:48;101082.09;;;15.71;60.93
48517;BME280;34310;51.904;4.256;2023-04-28T10:10:16;101084.78;;;15.72;60.82
48517;BME280;34310;51.904;4.256;2023-04-28T10:12:45;101082.19;;;15.72;60.79
48517;BME280;34310;51.904;4.256;2023-04-28T10:15:12;101083.06;;;15.73;60.79
48517;BME280;34310;51.904;4.256;2023-04-28T10:17:40;101079.59;;;15.72;60.87
48517;BME280;34310;51.904;4.256;2023-04-28T10:20:08;101084.88;;;15.74;61.02
48517;BME280;34310;51.904;4.256;2023-04-28T10:25:27;101085.69;;;15.73;60.99
48517;BME280;34310;51.904;4.256;2023-04-28T10:27:57;101084.88;;;15.74;60.96
48517;BME280;34310;51.904;4.256;2023-04-28T10:30:26;101083.06;;;15.73;60.94
48517;BME280;34310;51.904;4.256;2023-04-28T10:35:45;101090.06;;;15.74;61.04
48517;BME280;34310;51.904;4.256;2023-04-28T10:38:18;101090.97;;;15.74;61.01
48517;BME280;34310;51.904;4.256;2023-04-28T10:40:50;101094.47;;;15.75;60.89
48517;BME280;34310;51.904;4.256;2023-04-28T10:43:37;101091.88;;;15.75;61.05
48517;BME280;34310;51.904;4.256;2023-04-28T10:46:06;101093.56;;;15.74;60.98
48517;BME280;34310;51.904;4.256;2023-04-28T10:49:07;101094.47;;;15.75;60.92
48517;BME280;34310;51.904;4.256;2023-04-28T10:51:29;101084.06;;;15.75;60.96
48517;BME280;34310;51.904;4.256;2023-04-28T10:56:27;101098.84;;;15.76;61.14
48517;BME280;34310;51.904;4.256;2023-04-28T10:58:55;101087.56;;;15.75;61.14
48517;BME280;34310;51.904;4.256;2023-04-28T11:01:30;101091.88;;;15.75;61.04
48517;BME280;34310;51.904;4.256;2023-04-28T11:04:07;101088.44;;;15.76;61.03
48517;BME280;34310;51.904;4.256;2023-04-28T11:06:41;101094.53;;;15.76;61.00
48517;BME280;34310;51.904;4.256;2023-04-28T11:14:37;101092.84;;;15.77;61.21
48517;BME280;34310;51.904;4.256;2023-04-28T11:17:08;101093.72;;;15.77;61.11
48517;BME280;34310;51.904;4.256;2023-04-28T11:19:42;101099.84;;;15.78;61.20
48517;BME280;34310;51.904;4.256;2023-04-28T11:22:20;101097.22;;;15.78;61.17
48517;BME280;34310;51.904;4.256;2023-04-28T11:24:59;101096.34;;;15.77;61.03
48517;BME280;34310;51.904;4.256;2023-04-28T11:27:31;101103.34;;;15.78;61.20
48517;BME280;34310;51.904;4.256;2023-04-28T11:29:59;101105.94;;;15.78;61.25
48517;BME280;34310;51.904;4.256;2023-04-28T11:32:32;101105.03;;;15.78;61.11
48517;BME280;34310;51.904;4.256;2023-04-28T11:35:00;101109.44;;;15.79;61.05
48517;BME280;34310;51.904;4.256;2023-04-28T11:37:27;101109.44;;;15.79;61.19
48517;BME280;34310;51.904;4.256;2023-04-28T11:39:55;101099.03;;;15.79;61.19
48517;BME280;34310;51.904;4.256;2023-04-28T11:42:23;101112.03;;;15.79;61.24
48517;BME280;34310;51.904;4.256;2023-04-28T11:44:53;101112.03;;;15.79;61.04
48517;BME280;34310;51.904;4.256;2023-04-28T11:47:33;101119.03;;;15.80;61.13
48517;BME280;34310;51.904;4.256;2023-04-28T11:50:01;101113.81;;;15.80;61.10
48517;BME280;34310;51.904;4.256;2023-04-28T11:52:29;101109.50;;;15.80;61.21
48517;BME280;34310;51.904;4.256;2023-04-28T11:54:57;101121.72;;;15.82;61.24
48517;BME280;34310;51.904;4.256;2023-04-28T11:57:27;101126.94;;;15.82;61.15
48517;BME280;34310;51.904;4.256;2023-04-28T12:00:11;101119.13;;;15.82;61.00
48517;BME280;34310;51.904;4.256;2023-04-28T12:02:40;101127.81;;;15.82;61.13
48517;BME280;34310;51.904;4.256;2023-04-28T12:05:09;101131.25;;;15.81;61.26
48517;BME280;34310;51.904;4.256;2023-04-28T12:07:41;101126.94;;;15.82;61.22
48517;BME280;34310;51.904;4.256;2023-04-28T12:10:13;101127.81;;;15.82;61.17
48517;BME280;34310;51.904;4.256;2023-04-28T12:12:45;101134.72;;;15.82;61.10
48517;BME280;34310;51.904;4.256;2023-04-28T12:15:19;101134.81;;;15.83;61.31
48517;BME280;34310;51.904;4.256;2023-04-28T12:17:48;101134.81;;;15.83;61.33
48517;BME280;34310;51.904;4.256;2023-04-28T12:20:36;101134.81;;;15.83;61.15
48517;BME280;34310;51.904;4.256;2023-04-28T12:23:04;101147.03;;;15.84;61.15
48517;BME280;34310;51.904;4.256;2023-04-28T12:25:41;101130.50;;;15.84;61.16
48517;BME280;34310;51.904;4.256;2023-04-28T12:28:09;101141.81;;;15.84;61.20
48517;BME280;34310;51.904;4.256;2023-04-28T12:30:37;101141.81;;;15.84;61.29
48517;BME280;34310;51.904;4.256;2023-04-28T12:33:27;101147.03;;;15.84;61.33
48517;BME280;34310;51.904;4.256;2023-04-28T12:36:00;101143.59;;;15.85;61.23
48517;BME280;34310;51.904;4.256;2023-04-28T12:38:27;101149.72;;;15.86;61.15
48517;BME280;34310;51.904;4.256;2023-04-28T12:40:55;101143.59;;;15.85;61.17
48517;BME280;34310;51.904;4.256;2023-04-28T12:43:23;101145.41;;;15.86;61.34
48517;BME280;34310;51.904;4.256;2023-04-28T12:45:52;101153.22;;;15.86;61.22
48517;BME280;34310;51.904;4.256;2023-04-28T12:48:20;101150.59;;;15.86;61.34
48517;BME280;34310;51.904;4.256;2023-04-28T12:50:50;101154.09;;;15.87;61.36
48517;BME280;34310;51.904;4.256;2023-04-28T12:53:18;101159.31;;;15.87;61.30
48517;BME280;34310;51.904;4.256;2023-04-28T12:55:45;101155.91;;;15.88;61.14
48517;BME280;34310;51.904;4.256;2023-04-28T12:58:12;101152.41;;;15.87;61.16
48517;BME280;34310;51.904;4.256;2023-04-28T13:00:39;101164.59;;;15.88;61.29
48517;BME280;34310;51.904;4.256;2023-04-28T13:03:08;101162.81;;;15.87;61.31
48517;BME280;34310;51.904;4.256;2023-04-28T13:05:35;101156.78;;;15.88;61.24
48517;BME280;34310;51.904;4.256;2023-04-28T13:08:03;101176.81;;;15.89;61.42
48517;BME280;34310;51.904;4.256;2023-04-28T13:10:30;101165.50;;;15.89;61.25
48517;BME280;34310;51.904;4.256;2023-04-28T13:12:58;101163.00;;;15.90;61.41